Terminal Aerodrome Forecast
Issued by NWS

Home | Current Version | Previous Version | Text Only | Print | Product List | Glossary On
Versions: 1 2 3 4 5 6 7 8 9 10 11 12
000
FTUS45 KTFX 232339
TAFHVR
TAF
KHVR 232339Z 2400/2424 18010KT P6SM SCT200
     FM240700 21015G30KT P6SM SCT200
     FM241500 25030G50KT P6SM SCT200=

USA.gov is the U.S. government's official web portal to all federal, state and local government web resources and services.